Time;durP1;ratioP1;P1;durP2;ratioP2;P2;SDS_P1;SDS_P2;PMS_P1;PMS_P2;Temp;Humidity;BMP_temperature;BMP_pressure;BME280_temperature;BME280_humidity;BME280_pressure;Samples;Min_cycle;Max_cycle;Signal;HPM_P1;HPM_P2
2021/09/21 00:00:24;;;;;;;12.93;7.43;;;11.10;97.30;;;;;;5053148;28;20183;-78
2021/09/21 00:02:49;;;;;;;15.60;7.60;;;11.10;97.30;;;;;;5054277;28;20670;-78
2021/09/21 00:05:15;;;;;;;18.93;9.07;;;11.10;97.30;;;;;;5053590;28;20183;-78
2021/09/21 00:07:40;;;;;;;19.93;9.77;;;11.10;97.30;;;;;;5052629;28;20254;-78
2021/09/21 00:10:07;;;;;;;14.97;8.33;;;11.10;97.30;;;;;;5052842;28;20187;-78
2021/09/21 00:12:33;;;;;;;13.90;7.77;;;11.20;97.30;;;;;;5052482;28;20575;-78
2021/09/21 00:14:59;;;;;;;15.13;8.37;;;11.20;97.30;;;;;;5052695;28;20467;-78
2021/09/21 00:17:24;;;;;;;12.87;7.90;;;11.20;97.30;;;;;;5052684;28;20478;-78
2021/09/21 00:19:50;;;;;;;13.87;7.83;;;11.20;97.30;;;;;;5054023;28;20176;-77
2021/09/21 00:22:15;;;;;;;16.00;8.47;;;11.10;97.30;;;;;;5053925;28;20178;-78
2021/09/21 00:24:41;;;;;;;17.50;8.67;;;11.10;97.30;;;;;;5052735;28;20182;-77
2021/09/21 00:27:06;;;;;;;22.00;8.07;;;11.10;97.30;;;;;;5054187;28;20302;-78
2021/09/21 00:29:32;;;;;;;15.33;7.57;;;11.20;97.30;;;;;;5051984;28;20238;-78
2021/09/21 00:32:01;;;;;;;18.90;8.10;;;11.10;97.30;;;;;;5052830;28;20175;-78
2021/09/21 00:34:42;;;;;;;16.60;8.63;;;11.10;97.30;;;;;;5053232;28;20184;-78
2021/09/21 00:37:12;;;;;;;21.97;7.50;;;11.20;97.30;;;;;;5052349;28;20429;-78
2021/09/21 00:39:39;;;;;;;17.23;8.30;;;11.20;97.30;;;;;;5052528;28;20426;-78
2021/09/21 00:42:06;;;;;;;12.53;7.13;;;11.20;97.30;;;;;;5051853;28;20433;-78
2021/09/21 00:44:32;;;;;;;14.30;7.80;;;11.20;97.30;;;;;;5053037;28;20561;-79
2021/09/21 00:46:57;;;;;;;15.70;9.03;;;11.20;97.30;;;;;;5054708;28;20497;-78
2021/09/21 00:49:23;;;;;;;16.23;8.10;;;11.10;97.30;;;;;;5064919;28;20837;-78
2021/09/21 00:51:49;;;;;;;15.67;8.23;;;11.10;97.30;;;;;;5073143;28;20167;-78
2021/09/21 00:54:15;;;;;;;15.10;8.00;;;11.10;97.30;;;;;;5073490;28;20226;-78
2021/09/21 00:56:42;;;;;;;12.87;7.77;;;11.10;97.30;;;;;;5072592;28;20210;-78
2021/09/21 00:59:07;;;;;;;16.17;7.63;;;11.10;97.30;;;;;;5072862;28;20417;-77
2021/09/21 01:01:33;;;;;;;16.43;8.00;;;11.10;97.30;;;;;;5073304;28;20967;-78
2021/09/21 01:04:00;;;;;;;15.60;8.50;;;11.10;97.30;;;;;;5072056;28;20206;-77
2021/09/21 01:06:25;;;;;;;17.30;8.50;;;11.10;97.30;;;;;;5071407;28;20671;-78
2021/09/21 01:08:51;;;;;;;13.90;7.97;;;11.20;97.30;;;;;;5071810;28;20555;-78
2021/09/21 01:11:17;;;;;;;13.27;8.40;;;11.20;97.30;;;;;;5072991;28;20167;-78
2021/09/21 01:13:42;;;;;;;15.03;8.60;;;11.20;97.30;;;;;;5071591;28;20199;-78
2021/09/21 01:16:08;;;;;;;17.17;8.27;;;11.10;97.30;;;;;;5071195;28;20175;-79
2021/09/21 01:18:34;;;;;;;13.47;8.37;;;11.20;97.30;;;;;;5072893;28;20187;-78
2021/09/21 01:21:12;;;;;;;15.10;8.30;;;11.20;97.30;;;;;;5071088;28;20421;-78
2021/09/21 01:23:53;;;;;;;12.43;7.70;;;11.20;97.30;;;;;;5072551;28;20474;-78
2021/09/21 01:26:19;;;;;;;15.73;7.80;;;11.10;97.30;;;;;;5072634;28;20425;-78
2021/09/21 01:28:46;;;;;;;18.07;8.50;;;11.10;97.30;;;;;;5071168;28;20505;-78
2021/09/21 01:31:12;;;;;;;14.87;7.43;;;11.10;97.30;;;;;;5071363;28;20459;-78
2021/09/21 01:33:38;;;;;;;19.80;9.07;;;11.10;97.30;;;;;;5072213;28;20433;-78
2021/09/21 01:36:04;;;;;;;17.57;8.10;;;11.10;97.30;;;;;;5071399;28;20179;-78
2021/09/21 01:38:30;;;;;;;17.43;8.20;;;11.10;97.30;;;;;;5070960;28;20845;-78
2021/09/21 01:40:56;;;;;;;14.90;8.00;;;11.10;97.30;;;;;;5071371;28;20409;-78
2021/09/21 01:43:22;;;;;;;16.57;8.23;;;11.10;97.30;;;;;;5072068;28;20265;-79
2021/09/21 01:45:48;;;;;;;12.40;7.23;;;11.10;97.30;;;;;;5071265;28;20234;-78
2021/09/21 01:48:13;;;;;;;15.07;7.23;;;11.00;97.30;;;;;;5067576;28;20983;-78
2021/09/21 01:50:46;;;;;;;12.57;7.83;;;11.00;97.30;;;;;;5050833;28;20244;-78
2021/09/21 02:01:01;;;;;;;20.30;8.50;;;11.00;97.30;;;;;;5052103;28;20934;-78
2021/09/21 02:03:27;;;;;;;14.40;7.37;;;11.00;97.30;;;;;;5052294;28;20422;-78
2021/09/21 02:05:53;;;;;;;14.50;7.50;;;11.00;97.30;;;;;;5051938;28;20255;-78
2021/09/21 02:08:19;;;;;;;13.70;7.57;;;11.00;97.30;;;;;;5050509;28;20211;-78
2021/09/21 02:10:45;;;;;;;19.33;8.40;;;11.00;97.30;;;;;;5050897;28;20410;-77
2021/09/21 02:13:11;;;;;;;18.10;8.93;;;11.00;97.30;;;;;;5050037;28;20878;-78
2021/09/21 02:15:36;;;;;;;20.30;8.50;;;11.00;97.30;;;;;;5050844;28;20430;-78
2021/09/21 02:18:03;;;;;;;14.73;7.27;;;11.00;97.30;;;;;;5050736;28;20172;-78
2021/09/21 02:20:29;;;;;;;17.00;7.80;;;10.90;97.30;;;;;;5051459;28;20183;-78
2021/09/21 02:22:55;;;;;;;14.07;8.17;;;10.90;97.30;;;;;;5051731;28;20434;-78
2021/09/21 02:25:20;;;;;;;12.60;7.10;;;10.90;97.30;;;;;;5050270;28;20916;-78
2021/09/21 02:27:46;;;;;;;21.63;8.03;;;10.90;97.30;;;;;;5050614;28;20465;-79
2021/09/21 02:30:12;;;;;;;13.30;8.20;;;10.90;97.30;;;;;;5050125;28;20247;-78
2021/09/21 02:32:38;;;;;;;14.50;8.03;;;10.90;97.30;;;;;;5050453;28;20457;-78
2021/09/21 02:35:04;;;;;;;14.47;7.20;;;10.90;97.30;;;;;;5050228;28;20637;-78
2021/09/21 02:37:30;;;;;;;17.23;8.47;;;10.90;97.30;;;;;;5051250;28;20550;-78
2021/09/21 02:39:56;;;;;;;15.43;7.73;;;10.80;97.30;;;;;;5050986;28;20406;-78
2021/09/21 02:42:22;;;;;;;11.40;7.40;;;10.80;97.30;;;;;;5050088;28;20208;-79
2021/09/21 02:44:47;;;;;;;15.70;7.83;;;10.80;97.30;;;;;;5055949;28;20246;-78
2021/09/21 02:47:13;;;;;;;14.47;8.83;;;10.90;97.30;;;;;;5071309;28;20479;-78
2021/09/21 02:49:38;;;;;;;13.40;7.03;;;10.90;97.30;;;;;;5054469;28;20223;-77
2021/09/21 02:52:04;;;;;;;15.23;7.13;;;10.90;97.30;;;;;;5049610;28;20611;-78
2021/09/21 02:54:30;;;;;;;12.90;7.60;;;10.90;97.30;;;;;;5050011;28;20200;-78
2021/09/21 02:56:55;;;;;;;13.80;8.00;;;10.90;97.30;;;;;;5051268;28;20229;-78
2021/09/21 02:59:21;;;;;;;14.97;7.13;;;10.90;97.30;;;;;;5050655;28;20183;-78
2021/09/21 03:01:48;;;;;;;13.50;7.53;;;10.90;97.30;;;;;;5048988;28;20179;-77
2021/09/21 03:04:25;;;;;;;14.93;6.97;;;10.90;97.30;;;;;;5050846;28;20213;-78
2021/09/21 03:06:54;;;;;;;12.37;7.20;;;10.90;97.30;;;;;;5051567;28;20417;-78
2021/09/21 03:12:59;;;;;;;12.90;7.37;;;10.90;97.30;;;;;;5051330;28;20456;-78
2021/09/21 03:17:30;;;;;;;17.23;7.97;;;10.90;97.30;;;;;;5050716;28;20449;-78
2021/09/21 03:19:58;;;;;;;17.90;7.33;;;10.90;97.30;;;;;;5049766;28;20830;-78
2021/09/21 03:22:23;;;;;;;12.77;7.20;;;10.90;97.30;;;;;;5049059;28;20210;-77
2021/09/21 03:24:53;;;;;;;13.70;7.40;;;10.90;97.30;;;;;;5049504;28;20473;-77
2021/09/21 03:27:21;;;;;;;16.40;7.13;;;10.90;97.30;;;;;;5050688;28;20180;-78
2021/09/21 03:29:47;;;;;;;12.67;6.93;;;10.90;97.30;;;;;;5048908;28;21011;-77
2021/09/21 03:32:12;;;;;;;14.10;7.53;;;10.90;97.30;;;;;;5049216;28;20422;-77
2021/09/21 03:34:38;;;;;;;12.60;7.07;;;10.80;97.30;;;;;;5050241;28;20163;-78
2021/09/21 03:37:09;;;;;;;10.50;6.93;;;10.80;97.30;;;;;;5049045;28;20192;-78
2021/09/21 03:39:36;;;;;;;14.67;7.37;;;10.80;97.30;;;;;;5050052;28;20422;-78
2021/09/21 03:42:03;;;;;;;13.23;7.40;;;10.80;97.30;;;;;;5048964;28;20513;-79
2021/09/21 03:44:29;;;;;;;15.13;7.10;;;10.80;97.30;;;;;;5048702;28;20457;-78
2021/09/21 03:46:55;;;;;;;15.07;7.50;;;10.80;97.30;;;;;;5049093;28;20416;-79
2021/09/21 03:49:21;;;;;;;15.43;7.67;;;10.80;97.30;;;;;;5061326;28;20206;-78
2021/09/21 03:51:48;;;;;;;16.73;7.70;;;10.80;97.30;;;;;;5069218;28;20414;-78
2021/09/21 03:54:14;;;;;;;12.40;7.17;;;10.90;97.30;;;;;;5069167;28;20517;-78
2021/09/21 03:56:39;;;;;;;11.63;6.20;;;10.90;97.30;;;;;;5068684;28;20505;-77
2021/09/21 03:59:06;;;;;;;13.07;7.50;;;10.90;97.30;;;;;;5068900;28;20673;-78
2021/09/21 04:01:32;;;;;;;18.80;7.33;;;10.90;97.30;;;;;;5068705;28;20915;-79
2021/09/21 04:03:58;;;;;;;11.63;7.20;;;10.90;97.30;;;;;;5068739;28;20514;-78
2021/09/21 04:06:24;;;;;;;11.60;7.30;;;10.90;97.30;;;;;;5068683;28;20500;-78
2021/09/21 04:08:50;;;;;;;16.13;7.60;;;10.80;97.30;;;;;;5068875;28;20229;-77
2021/09/21 04:11:16;;;;;;;14.57;7.87;;;10.80;97.30;;;;;;5069963;28;20175;-78
2021/09/21 04:13:42;;;;;;;15.83;7.43;;;10.80;97.30;;;;;;5068946;28;21025;-78
2021/09/21 04:16:07;;;;;;;13.80;7.13;;;10.80;97.30;;;;;;5068590;28;20172;-78
2021/09/21 04:18:33;;;;;;;18.13;8.87;;;10.80;97.30;;;;;;5069077;28;20183;-78
2021/09/21 04:20:59;;;;;;;11.57;6.27;;;10.90;97.30;;;;;;5068934;28;20179;-77
2021/09/21 04:23:24;;;;;;;15.70;7.17;;;10.90;97.30;;;;;;5070357;28;20199;-78
2021/09/21 04:25:50;;;;;;;16.00;7.77;;;10.90;97.30;;;;;;5068829;28;20183;-77
2021/09/21 04:28:16;;;;;;;15.47;7.80;;;10.90;97.30;;;;;;5068608;28;20648;-78
2021/09/21 04:30:43;;;;;;;15.80;7.20;;;10.90;97.30;;;;;;5068803;28;20171;-78
2021/09/21 04:33:09;;;;;;;14.70;7.23;;;10.90;97.30;;;;;;5069851;28;20429;-78
2021/09/21 04:35:37;;;;;;;12.20;7.50;;;10.80;97.30;;;;;;5069446;28;20441;-77
2021/09/21 04:38:02;;;;;;;16.63;8.53;;;10.80;97.30;;;;;;5067960;28;20426;-77
2021/09/21 04:40:28;;;;;;;14.83;7.90;;;10.80;97.30;;;;;;5068517;28;20415;-77
2021/09/21 04:42:54;;;;;;;15.00;8.67;;;10.80;97.30;;;;;;5071048;28;20290;-77
2021/09/21 04:45:19;;;;;;;15.50;7.87;;;10.80;97.30;;;;;;5073240;28;20191;-78
2021/09/21 04:47:45;;;;;;;16.90;8.40;;;10.80;97.30;;;;;;5056501;28;20700;-78
2021/09/21 04:50:11;;;;;;;14.17;7.30;;;10.90;97.30;;;;;;5071973;28;20175;-77
2021/09/21 04:52:37;;;;;;;15.80;8.07;;;10.80;97.30;;;;;;5072626;28;20259;-77
2021/09/21 04:55:03;;;;;;;15.70;8.40;;;10.90;97.30;;;;;;5072969;28;20827;-78
2021/09/21 04:57:29;;;;;;;16.50;8.60;;;10.90;97.30;;;;;;5072293;28;20655;-78
2021/09/21 04:59:54;;;;;;;15.13;8.30;;;10.90;97.30;;;;;;5072230;28;20417;-77
2021/09/21 05:02:20;;;;;;;15.00;9.00;;;10.90;97.30;;;;;;5072070;28;20190;-78
2021/09/21 05:04:45;;;;;;;15.10;8.63;;;10.90;97.30;;;;;;5072999;28;20186;-78
2021/09/21 05:07:11;;;;;;;12.83;7.37;;;10.90;97.30;;;;;;5072844;28;20179;-78
2021/09/21 05:09:36;;;;;;;14.07;7.03;;;10.90;97.30;;;;;;5073729;28;20203;-78
2021/09/21 05:12:02;;;;;;;13.97;7.60;;;10.90;97.30;;;;;;5071855;28;20176;-77
2021/09/21 05:14:29;;;;;;;12.93;7.60;;;10.90;97.30;;;;;;5080574;28;20205;-77
2021/09/21 05:16:54;;;;;;;15.30;7.67;;;10.90;97.30;;;;;;5083182;28;20930;-78
2021/09/21 05:19:20;;;;;;;10.53;7.30;;;10.90;97.30;;;;;;5081876;28;20813;-77
2021/09/21 05:21:45;;;;;;;12.50;7.07;;;10.90;97.30;;;;;;5076237;28;20241;-77
2021/09/21 05:24:11;;;;;;;13.67;7.20;;;10.90;97.30;;;;;;5089354;28;20198;-77
2021/09/21 05:26:37;;;;;;;13.97;7.50;;;10.90;97.30;;;;;;5078187;28;20178;-77
2021/09/21 05:29:04;;;;;;;18.03;7.80;;;10.90;97.30;;;;;;5082295;28;20618;-78
2021/09/21 05:31:29;;;;;;;16.20;7.97;;;10.80;97.30;;;;;;5086806;28;20655;-79
2021/09/21 05:33:55;;;;;;;13.53;7.37;;;10.80;97.30;;;;;;5075666;28;20433;-78
2021/09/21 05:36:21;;;;;;;15.77;8.37;;;10.90;97.30;;;;;;5088134;28;20171;-77
2021/09/21 05:38:46;;;;;;;16.33;7.50;;;10.90;97.30;;;;;;5077572;28;20174;-78
2021/09/21 05:41:12;;;;;;;18.33;8.00;;;11.00;97.30;;;;;;5081521;28;20222;-78
2021/09/21 05:43:37;;;;;;;17.93;7.57;;;11.00;97.30;;;;;;5084431;28;20644;-78
2021/09/21 05:46:03;;;;;;;15.27;7.33;;;11.00;97.30;;;;;;5071858;28;20295;-78
2021/09/21 05:48:29;;;;;;;14.60;7.90;;;11.00;97.30;;;;;;5064921;28;20290;-77
2021/09/21 05:50:55;;;;;;;20.67;7.97;;;11.00;97.30;;;;;;5076182;28;20181;-78
2021/09/21 05:53:20;;;;;;;12.73;7.53;;;11.00;97.30;;;;;;5070563;28;20212;-77
2021/09/21 05:55:46;;;;;;;18.43;8.30;;;11.00;97.30;;;;;;5066869;28;20410;-77
2021/09/21 05:58:12;;;;;;;18.43;6.90;;;11.00;97.30;;;;;;5082282;28;20179;-77
2021/09/21 06:00:38;;;;;;;19.70;8.30;;;11.10;97.30;;;;;;5065331;28;20211;-77
2021/09/21 06:03:04;;;;;;;16.40;7.90;;;11.10;97.30;;;;;;5057188;28;20672;-77
2021/09/21 06:05:29;;;;;;;15.10;7.53;;;11.10;97.30;;;;;;5050028;28;20687;-77
2021/09/21 06:07:55;;;;;;;16.73;8.20;;;11.20;97.30;;;;;;5053970;28;20986;-77
2021/09/21 06:10:23;;;;;;;16.33;7.93;;;11.20;97.30;;;;;;5068598;28;20176;-77
2021/09/21 06:12:49;;;;;;;16.30;7.40;;;11.20;97.30;;;;;;5072885;28;20440;-77
2021/09/21 06:15:16;;;;;;;16.50;7.90;;;11.30;97.30;;;;;;5072978;28;20485;-77
2021/09/21 06:17:43;;;;;;;19.77;8.30;;;11.30;97.30;;;;;;5073892;28;20174;-77
2021/09/21 06:20:10;;;;;;;16.40;8.40;;;11.30;97.30;;;;;;5072881;28;20946;-77
2021/09/21 06:22:40;;;;;;;16.20;8.03;;;11.40;97.30;;;;;;5072140;28;20461;-78
2021/09/21 06:25:07;;;;;;;15.90;8.50;;;11.40;97.30;;;;;;5074057;28;20429;-78
2021/09/21 06:27:35;;;;;;;17.43;8.60;;;11.50;97.30;;;;;;5074073;28;20413;-78
2021/09/21 06:30:01;;;;;;;21.90;8.20;;;11.50;97.30;;;;;;5072578;28;20997;-78
2021/09/21 06:32:27;;;;;;;18.50;8.53;;;11.60;97.30;;;;;;5072317;28;20449;-78
2021/09/21 06:34:53;;;;;;;17.80;8.30;;;11.60;97.30;;;;;;5072864;28;20458;-78
2021/09/21 06:37:18;;;;;;;17.90;7.30;;;11.60;97.30;;;;;;5073798;28;20221;-78
2021/09/21 06:39:44;;;;;;;16.00;7.83;;;11.70;97.30;;;;;;5072234;28;20175;-78
2021/09/21 06:42:09;;;;;;;13.80;7.30;;;11.70;97.30;;;;;;5072193;28;20571;-77
2021/09/21 06:44:35;;;;;;;14.77;6.90;;;11.80;97.30;;;;;;5072169;28;20284;-78
2021/09/21 06:47:01;;;;;;;21.87;7.73;;;11.80;97.30;;;;;;5073703;28;20198;-78
2021/09/21 06:49:26;;;;;;;15.93;8.03;;;11.80;97.30;;;;;;5072335;28;20203;-78
2021/09/21 06:51:53;;;;;;;18.17;8.10;;;11.80;97.30;;;;;;5072522;28;20203;-78
2021/09/21 06:54:18;;;;;;;17.57;7.73;;;11.90;97.30;;;;;;5073357;28;20471;-78
2021/09/21 06:56:44;;;;;;;15.20;7.97;;;11.90;97.30;;;;;;5073532;28;20182;-77
2021/09/21 06:59:09;;;;;;;14.50;7.77;;;11.90;97.30;;;;;;5073386;28;20185;-78
2021/09/21 07:01:35;;;;;;;18.80;7.50;;;12.00;97.30;;;;;;5073055;28;20252;-78
2021/09/21 07:04:01;;;;;;;14.93;8.40;;;12.00;97.30;;;;;;5071576;28;20275;-78
2021/09/21 07:06:26;;;;;;;12.73;6.93;;;12.00;97.30;;;;;;5072201;28;20183;-78
2021/09/21 07:08:52;;;;;;;16.03;7.67;;;12.00;97.30;;;;;;5072048;28;20256;-77
2021/09/21 07:11:19;;;;;;;16.17;8.50;;;12.00;97.30;;;;;;5072141;28;20179;-78
2021/09/21 07:13:45;;;;;;;14.90;7.80;;;12.00;97.30;;;;;;5073079;28;20191;-78
2021/09/21 07:16:12;;;;;;;14.60;8.23;;;12.10;97.30;;;;;;5073366;28;20783;-78
2021/09/21 07:18:37;;;;;;;19.27;8.30;;;12.10;97.30;;;;;;5072104;28;20232;-78
2021/09/21 07:21:03;;;;;;;19.03;8.30;;;12.10;97.30;;;;;;5073017;28;20425;-77
2021/09/21 07:23:28;;;;;;;14.90;7.80;;;12.20;97.30;;;;;;5071792;28;20575;-78
2021/09/21 07:25:54;;;;;;;16.57;7.30;;;12.20;97.30;;;;;;5071778;28;20229;-79
2021/09/21 07:28:19;;;;;;;22.70;8.90;;;12.20;97.30;;;;;;5073720;28;20209;-78
2021/09/21 07:30:45;;;;;;;19.30;8.00;;;12.30;97.30;;;;;;5072994;28;20171;-78
2021/09/21 07:33:15;;;;;;;15.70;7.67;;;12.30;97.30;;;;;;5073069;28;20191;-78
2021/09/21 07:35:41;;;;;;;13.57;7.00;;;12.40;97.30;;;;;;5073155;28;20248;-78
2021/09/21 07:38:06;;;;;;;14.67;7.50;;;12.40;97.30;;;;;;5072265;28;20417;-78
2021/09/21 07:40:35;;;;;;;13.97;7.03;;;12.50;97.30;;;;;;5071727;28;20179;-78
2021/09/21 07:43:02;;;;;;;13.70;6.63;;;12.50;97.30;;;;;;5071993;28;20331;-78
2021/09/21 07:45:28;;;;;;;17.30;8.00;;;12.60;97.30;;;;;;5063265;28;20756;-78
2021/09/21 07:47:54;;;;;;;12.77;7.70;;;12.60;97.30;;;;;;5069574;28;20432;-78
2021/09/21 07:50:20;;;;;;;14.63;7.27;;;12.60;97.30;;;;;;5070600;28;20176;-78
2021/09/21 07:52:46;;;;;;;18.70;8.40;;;12.60;97.30;;;;;;5066562;28;20192;-79
2021/09/21 07:55:12;;;;;;;19.93;7.40;;;12.70;97.30;;;;;;5055685;28;21011;-78
2021/09/21 07:57:40;;;;;;;16.60;7.30;;;12.70;97.30;;;;;;5057489;28;20437;-78
2021/09/21 08:00:07;;;;;;;19.33;7.40;;;12.80;97.30;;;;;;5070432;28;20185;-78
2021/09/21 08:02:32;;;;;;;15.30;7.97;;;12.80;97.30;;;;;;5068888;28;20541;-78
2021/09/21 08:04:58;;;;;;;17.73;7.50;;;12.90;97.30;;;;;;5069035;28;20414;-79
2021/09/21 08:07:28;;;;;;;16.20;8.63;;;12.90;97.30;;;;;;5069059;28;20175;-78
2021/09/21 08:09:55;;;;;;;18.50;8.10;;;12.90;97.30;;;;;;5070351;28;20205;-78
2021/09/21 08:12:21;;;;;;;18.13;7.47;;;13.00;97.30;;;;;;5068743;28;20969;-78
2021/09/21 08:14:49;;;;;;;18.67;7.17;;;13.00;97.30;;;;;;5068619;28;20413;-79
2021/09/21 08:17:15;;;;;;;15.97;8.63;;;13.00;97.30;;;;;;5071172;28;20862;-78
2021/09/21 08:19:41;;;;;;;17.53;8.30;;;13.10;97.30;;;;;;5072404;28;20457;-79
2021/09/21 08:22:07;;;;;;;16.67;7.90;;;13.10;97.30;;;;;;5072480;28;20788;-79
2021/09/21 08:24:32;;;;;;;12.80;7.40;;;13.10;97.30;;;;;;5072781;28;20261;-78
2021/09/21 08:26:58;;;;;;;16.17;8.10;;;13.10;97.30;;;;;;5074097;28;20196;-77
2021/09/21 08:29:24;;;;;;;16.30;8.10;;;13.10;97.30;;;;;;5072438;28;20256;-79
2021/09/21 08:31:50;;;;;;;14.07;7.63;;;13.10;97.30;;;;;;5058268;28;20430;-78
2021/09/21 08:34:15;;;;;;;13.07;7.07;;;13.10;97.30;;;;;;5052569;28;20204;-78
2021/09/21 08:36:41;;;;;;;15.20;7.33;;;13.10;97.30;;;;;;5054672;28;20168;-78
2021/09/21 08:39:07;;;;;;;13.50;7.03;;;13.20;97.30;;;;;;5054385;28;20175;-78
2021/09/21 08:41:33;;;;;;;18.93;7.23;;;13.20;97.30;;;;;;5053646;28;20190;-78
2021/09/21 08:43:58;;;;;;;20.67;7.00;;;13.20;97.30;;;;;;5052184;28;20242;-78
2021/09/21 08:46:25;;;;;;;12.40;7.37;;;13.30;97.30;;;;;;5054094;28;20423;-78
2021/09/21 08:48:51;;;;;;;15.30;6.63;;;13.30;97.30;;;;;;5064312;28;20203;-78
2021/09/21 08:51:17;;;;;;;12.17;7.00;;;13.40;97.30;;;;;;5073591;28;20463;-78
2021/09/21 08:53:42;;;;;;;12.43;6.73;;;13.40;97.30;;;;;;5053995;28;20434;-78
2021/09/21 08:56:08;;;;;;;11.50;7.00;;;13.50;97.30;;;;;;5051623;28;21049;-78
2021/09/21 08:58:34;;;;;;;14.70;7.10;;;13.60;97.30;;;;;;5053370;28;20192;-79
2021/09/21 09:01:14;;;;;;;12.03;6.97;;;13.60;97.30;;;;;;5054433;28;20194;-79
2021/09/21 09:03:39;;;;;;;12.03;6.80;;;13.70;97.30;;;;;;5084693;28;20278;-78
2021/09/21 09:06:07;;;;;;;13.93;6.53;;;13.70;97.30;;;;;;5083418;28;20436;-78
2021/09/21 09:08:34;;;;;;;10.10;5.60;;;13.80;97.30;;;;;;5092998;28;20194;-78
2021/09/21 09:11:18;;;;;;;11.27;5.10;;;13.80;97.30;;;;;;5091643;28;20413;-78
2021/09/21 09:13:45;;;;;;;10.50;5.73;;;13.80;97.30;;;;;;5087270;28;20515;-78
2021/09/21 09:16:16;;;;;;;10.73;5.80;;;13.90;97.30;;;;;;5075620;28;20959;-78
2021/09/21 09:18:43;;;;;;;16.13;5.50;;;13.90;97.30;;;;;;5064587;28;20410;-78
2021/09/21 09:21:10;;;;;;;16.00;5.47;;;14.00;97.30;;;;;;5057271;28;20932;-79
2021/09/21 09:23:45;;;;;;;10.70;5.50;;;14.10;97.30;;;;;;5072970;28;20816;-78
2021/09/21 09:26:11;;;;;;;11.17;5.40;;;14.10;97.30;;;;;;5093691;28;20447;-78
2021/09/21 09:28:36;;;;;;;9.40;5.83;;;14.20;97.30;;;;;;5094331;28;20483;-76
2021/09/21 09:31:02;;;;;;;15.13;6.07;;;14.30;97.30;;;;;;5087897;28;20174;-78
2021/09/21 09:33:33;;;;;;;10.27;5.07;;;14.30;97.30;;;;;;5066884;28;20238;-78
2021/09/21 09:36:00;;;;;;;7.20;4.20;;;14.50;97.30;;;;;;5072115;28;20493;-78
2021/09/21 09:38:25;;;;;;;8.27;4.90;;;14.50;97.30;;;;;;5075453;28;20831;-79
2021/09/21 09:40:53;;;;;;;10.20;5.43;;;14.60;97.30;;;;;;5070243;28;20421;-78
2021/09/21 09:43:22;;;;;;;7.73;4.80;;;14.80;97.30;;;;;;5070470;28;20712;-78
2021/09/21 09:45:51;;;;;;;6.90;4.20;;;14.90;97.30;;;;;;5069932;28;20420;-78
2021/09/21 09:48:19;;;;;;;9.00;4.87;;;15.00;97.30;;;;;;5069551;28;20449;-78
2021/09/21 09:50:47;;;;;;;8.27;4.13;;;15.10;97.30;;;;;;5069788;28;20466;-78
2021/09/21 09:53:12;;;;;;;10.07;4.17;;;15.30;97.30;;;;;;5070980;28;20426;-78
2021/09/21 09:55:39;;;;;;;9.23;4.90;;;15.30;97.30;;;;;;5069865;28;20405;-77
2021/09/21 09:58:06;;;;;;;9.07;4.60;;;15.30;97.30;;;;;;5069457;28;20332;-78
2021/09/21 10:00:33;;;;;;;6.90;4.63;;;15.20;97.30;;;;;;5069085;28;20500;-79
2021/09/21 10:02:59;;;;;;;10.73;5.03;;;15.20;97.30;;;;;;5069390;28;20524;-79
2021/09/21 10:05:25;;;;;;;12.43;5.93;;;15.20;97.30;;;;;;5069561;28;20432;-78
2021/09/21 10:07:51;;;;;;;10.40;5.20;;;15.10;97.30;;;;;;5070443;28;20417;-78
2021/09/21 10:10:16;;;;;;;7.50;5.07;;;15.10;97.30;;;;;;5069869;28;20175;-78
2021/09/21 10:12:43;;;;;;;11.53;4.87;;;15.10;97.30;;;;;;5070745;28;20683;-78
2021/09/21 10:15:10;;;;;;;8.37;4.60;;;15.00;97.30;;;;;;5069799;28;20180;-79
2021/09/21 10:17:36;;;;;;;8.53;4.87;;;15.00;97.30;;;;;;5059549;28;20476;-78
2021/09/21 10:20:04;;;;;;;6.93;4.20;;;15.00;97.30;;;;;;5055637;28;20417;-78
2021/09/21 10:22:31;;;;;;;8.63;4.40;;;15.00;97.30;;;;;;5053312;28;20207;-78
2021/09/21 10:25:09;;;;;;;12.40;4.70;;;15.00;97.30;;;;;;5050329;28;20414;-78
2021/09/21 10:27:37;;;;;;;7.17;4.67;;;15.10;97.30;;;;;;5050389;28;20947;-78
2021/09/21 10:30:10;;;;;;;7.00;4.63;;;15.20;97.30;;;;;;5050169;28;20462;-78
2021/09/21 10:32:47;;;;;;;8.60;4.73;;;15.30;97.30;;;;;;5067714;28;20445;-77
2021/09/21 10:35:20;;;;;;;6.40;3.90;;;15.30;97.30;;;;;;5065951;28;20422;-78
2021/09/21 10:38:03;;;;;;;6.83;4.90;;;15.30;97.30;;;;;;5055448;28;20415;-78
2021/09/21 10:40:47;;;;;;;6.63;3.40;;;15.30;97.30;;;;;;5050828;28;20410;-78
2021/09/21 10:43:27;;;;;;;7.47;4.27;;;15.30;97.30;;;;;;5051404;28;20429;-78
2021/09/21 10:46:10;;;;;;;5.13;3.60;;;15.20;97.30;;;;;;5051919;28;20475;-78
2021/09/21 10:48:38;;;;;;;6.20;3.57;;;15.20;97.30;;;;;;5057527;28;20445;-78
2021/09/21 10:51:06;;;;;;;5.80;3.33;;;15.10;97.30;;;;;;5071036;28;20406;-78
2021/09/21 10:53:31;;;;;;;4.83;3.93;;;15.10;96.30;;;;;;5069917;28;21017;-78
2021/09/21 10:56:03;;;;;;;5.10;3.50;;;15.10;96.70;;;;;;5069989;28;20497;-78
2021/09/21 10:58:29;;;;;;;4.50;2.97;;;15.10;96.90;;;;;;5071376;28;20171;-78
2021/09/21 11:00:56;;;;;;;4.00;2.73;;;15.10;96.20;;;;;;5068159;28;20699;-78
2021/09/21 11:03:27;;;;;;;6.43;3.47;;;15.10;96.40;;;;;;5070324;28;20516;-78
2021/09/21 11:06:00;;;;;;;6.30;3.40;;;15.10;96.30;;;;;;5069626;28;20998;-78
2021/09/21 11:08:34;;;;;;;7.27;3.60;;;15.00;96.80;;;;;;5070559;28;20471;-78
2021/09/21 11:11:02;;;;;;;4.20;3.10;;;15.00;97.30;;;;;;5069548;28;20424;-78
2021/09/21 11:13:35;;;;;;;6.97;4.23;;;15.00;97.30;;;;;;5061996;28;20433;-78
2021/09/21 11:16:03;;;;;;;12.43;6.03;;;15.00;97.30;;;;;;5058967;28;20418;-78
2021/09/21 11:18:29;;;;;;;7.70;4.60;;;15.00;97.30;;;;;;5059585;28;21082;-78
2021/09/21 11:20:58;;;;;;;10.40;5.30;;;15.00;97.30;;;;;;5070190;28;20467;-78
2021/09/21 11:23:29;;;;;;;11.13;4.30;;;15.00;97.30;;;;;;5069501;28;20437;-78
2021/09/21 11:25:58;;;;;;;12.23;5.13;;;15.00;97.30;;;;;;5069683;28;20471;-76
2021/09/21 11:28:26;;;;;;;13.13;5.00;;;15.10;97.30;;;;;;5070920;28;20503;-76
2021/09/21 11:30:53;;;;;;;7.37;4.50;;;15.10;97.30;;;;;;5052377;28;20423;-77
2021/09/21 11:33:21;;;;;;;9.73;4.80;;;15.10;97.30;;;;;;5058343;28;20446;-77
2021/09/21 11:35:54;;;;;;;11.00;4.70;;;15.20;97.30;;;;;;5058941;28;20417;-77
2021/09/21 11:38:21;;;;;;;9.57;4.53;;;15.20;97.30;;;;;;5055123;28;20421;-77
2021/09/21 11:40:50;;;;;;;12.70;5.10;;;15.30;97.30;;;;;;5054495;28;20414;-78
2021/09/21 11:43:16;;;;;;;18.43;5.20;;;15.50;97.30;;;;;;5069166;28;20437;-77
2021/09/21 11:45:44;;;;;;;13.60;5.87;;;15.60;97.30;;;;;;5069021;28;20406;-78
2021/09/21 11:48:11;;;;;;;6.60;3.83;;;15.70;97.30;;;;;;5067686;28;20673;-77
2021/09/21 11:50:38;;;;;;;9.30;5.23;;;15.70;97.30;;;;;;5051045;28;20446;-77
2021/09/21 11:53:09;;;;;;;5.53;3.50;;;15.90;97.30;;;;;;5056763;28;20804;-78
2021/09/21 11:55:41;;;;;;;8.30;4.10;;;16.00;96.70;;;;;;5055597;28;20920;-77
2021/09/21 11:58:10;;;;;;;7.03;4.07;;;16.10;96.50;;;;;;5055559;28;20414;-77
2021/09/21 12:00:43;;;;;;;8.33;5.03;;;16.20;96.60;;;;;;5056973;28;20410;-77
2021/09/21 12:03:14;;;;;;;8.40;4.57;;;16.30;95.50;;;;;;5055768;28;20472;-77
2021/09/21 12:05:42;;;;;;;8.07;4.23;;;16.30;96.30;;;;;;5057306;28;20405;-77
2021/09/21 12:08:18;;;;;;;11.00;4.57;;;16.30;94.50;;;;;;5055947;28;20414;-78
2021/09/21 12:10:50;;;;;;;6.03;4.23;;;16.30;94.60;;;;;;5056544;28;20586;-77
2021/09/21 12:13:18;;;;;;;9.37;4.83;;;16.40;95.40;;;;;;5055296;28;20448;-79
2021/09/21 12:15:47;;;;;;;7.03;4.50;;;16.50;95.70;;;;;;5055754;28;20509;-78
2021/09/21 12:18:14;;;;;;;6.77;3.70;;;16.70;93.60;;;;;;5057390;28;20892;-78
2021/09/21 12:20:41;;;;;;;9.40;4.50;;;16.90;94.20;;;;;;5055189;28;20414;-79
2021/09/21 12:23:09;;;;;;;8.20;4.20;;;17.00;92.80;;;;;;5055343;28;20437;-78
2021/09/21 12:25:36;;;;;;;7.53;4.40;;;17.00;91.40;;;;;;5038983;28;20417;-78
2021/09/21 12:28:04;;;;;;;8.00;4.30;;;17.00;91.30;;;;;;5055001;28;20791;-79
2021/09/21 12:30:32;;;;;;;11.53;4.20;;;17.00;91.10;;;;;;5056947;28;20402;-78
2021/09/21 12:33:10;;;;;;;6.73;4.20;;;16.90;90.70;;;;;;5069354;28;20801;-77
2021/09/21 12:35:51;;;;;;;5.83;4.00;;;16.80;90.50;;;;;;5076772;28;20407;-77
2021/09/21 12:38:21;;;;;;;8.13;4.40;;;16.70;90.70;;;;;;5077312;28;20775;-80
2021/09/21 12:40:56;;;;;;;12.83;4.33;;;16.80;91.40;;;;;;5076911;28;20902;-78
2021/09/21 12:43:33;;;;;;;7.97;3.80;;;16.90;90.20;;;;;;5074936;28;20456;-78
2021/09/21 12:46:04;;;;;;;8.73;3.90;;;16.90;89.80;;;;;;5072069;28;20432;-78
2021/09/21 12:48:41;;;;;;;7.23;3.80;;;16.90;89.90;;;;;;5068181;28;20992;-79
2021/09/21 12:51:08;;;;;;;7.97;3.47;;;16.90;90.30;;;;;;5076606;28;20503;-78